Terminal Aerodrome Forecast
Issued by NWS Midland/Odessa, TX

Home | Current Version | Previous Version | Text Only | Print | Product List | Glossary On
Versions: 1 2 3 4 5 6 7 8 9 10 11 12 13 14 15 16 17 18 19 20 21
000
FTUS44 KMAF 070534
TAFMAF
TAF
KMAF 070534Z 0706/0806 16014KT P6SM SCT060 OVC200
      TEMPO 0708/0712 VRB20G30KT 6SM -TSRA BKN050CB
     FM071500 13009KT P6SM OVC015
     FM071900 04010KT P6SM SCT030 OVC250=

USA.gov is the U.S. government's official web portal to all federal, state and local government web resources and services.